createdAt,value
2022-11-28T00:05:47.153Z,5.50
2022-11-28T00:11:50.225Z,5.50
2022-11-28T00:17:52.265Z,5.50
2022-11-28T00:23:54.340Z,5.50
2022-11-28T00:29:57.250Z,5.50
2022-11-28T00:36:04.880Z,5.50
2022-11-28T00:42:07.055Z,5.60
2022-11-28T00:48:09.229Z,5.50
2022-11-28T00:54:11.585Z,5.50
2022-11-28T01:00:14.316Z,5.50
2022-11-28T01:06:24.962Z,5.40
2022-11-28T01:12:27.264Z,5.40
2022-11-28T01:18:29.363Z,5.40
2022-11-28T01:24:31.438Z,5.50
2022-11-28T01:30:34.075Z,5.50
2022-11-28T01:36:36.149Z,5.40
2022-11-28T01:42:38.708Z,5.50
2022-11-28T01:48:42.727Z,5.50
2022-11-28T01:54:48.692Z,5.50
2022-11-28T02:00:51.014Z,5.40
2022-11-28T02:06:53.289Z,5.30
2022-11-28T02:13:03.475Z,5.40
2022-11-28T02:19:41.800Z,5.30
2022-11-28T02:26:03.082Z,5.30
2022-11-28T02:32:15.301Z,5.30
2022-11-28T02:38:53.098Z,5.10
2022-11-28T02:45:01.343Z,5.00
2022-11-28T02:51:18.788Z,5.00
2022-11-28T02:57:20.766Z,5.00
2022-11-28T03:03:52.509Z,5.10
2022-11-28T03:10:36.079Z,5.00
2022-11-28T03:16:57.250Z,5.00
2022-11-28T03:23:23.046Z,5.00
2022-11-28T03:29:32.411Z,4.90
2022-11-28T03:35:40.162Z,5.00
2022-11-28T03:42:09.524Z,4.90
2022-11-28T03:48:22.073Z,4.90
2022-11-28T03:55:02.318Z,4.90
2022-11-28T04:01:22.796Z,4.90
2022-11-28T04:08:24.494Z,4.90
2022-11-28T04:14:37.775Z,5.00
2022-11-28T04:20:46.481Z,4.90
2022-11-28T04:26:55.326Z,4.70
2022-11-28T04:33:01.253Z,4.60
2022-11-28T04:39:08.359Z,4.60
2022-11-28T04:45:22.488Z,4.50
2022-11-28T04:51:31.039Z,4.60
2022-11-28T04:57:39.896Z,4.50
2022-11-28T05:03:42.995Z,4.50
2022-11-28T05:09:45.380Z,4.40
2022-11-28T05:15:47.578Z,4.30
2022-11-28T05:21:50.161Z,4.20
2022-11-28T05:27:52.296Z,4.20
2022-11-28T05:33:55.304Z,4.30
2022-11-28T05:39:57.394Z,4.30
2022-11-28T05:45:59.667Z,4.30
2022-11-28T05:52:02.007Z,4.30
2022-11-28T05:58:04.307Z,4.40
2022-11-28T06:04:06.472Z,4.30
2022-11-28T06:10:09.078Z,4.30
2022-11-28T06:16:12.193Z,4.30
2022-11-28T06:22:14.600Z,4.40
2022-11-28T06:28:16.701Z,4.40
2022-11-28T06:34:18.916Z,4.40
2022-11-28T06:40:20.955Z,4.40
2022-11-28T06:46:23.916Z,4.40
2022-11-28T06:52:26.290Z,4.40
2022-11-28T06:58:28.597Z,4.40
2022-11-28T07:04:30.917Z,4.30
2022-11-28T07:10:33.148Z,4.30
2022-11-28T07:16:35.549Z,4.50
2022-11-28T07:22:37.871Z,4.20
2022-11-28T07:28:40.546Z,4.20
2022-11-28T07:34:45.591Z,4.20
2022-11-28T07:40:51.030Z,4.40
2022-11-28T07:46:53.410Z,4.30
2022-11-28T07:52:55.571Z,4.50
2022-11-28T07:59:01.897Z,4.70
2022-11-28T08:05:05.723Z,4.70
2022-11-28T08:11:09.256Z,5.00
2022-11-28T08:17:11.705Z,5.10
2022-11-28T08:23:14.063Z,5.40
2022-11-28T08:29:16.370Z,5.30
2022-11-28T08:35:18.662Z,5.40
2022-11-28T08:41:23.281Z,5.60
2022-11-28T08:47:25.698Z,5.60
2022-11-28T08:53:28.286Z,5.90
2022-11-28T08:59:30.726Z,5.70
2022-11-28T09:05:33.041Z,6.10
2022-11-28T09:11:35.749Z,6.10
2022-11-28T09:17:37.929Z,6.20
2022-11-28T09:23:41.672Z,6.60
2022-11-28T09:29:45.169Z,6.70
2022-11-28T09:35:47.529Z,6.80
2022-11-28T09:41:49.768Z,7.10
2022-11-28T09:47:58.458Z,7.70
2022-11-28T09:54:09.447Z,8.20
2022-11-28T10:00:19.069Z,8.30
2022-11-28T10:06:28.449Z,9.00
2022-11-28T10:13:01.629Z,8.80
2022-11-28T10:19:31.588Z,8.80
2022-11-28T10:25:41.738Z,9.00
2022-11-28T10:31:46.022Z,8.70
2022-11-28T10:37:49.674Z,8.40
2022-11-28T10:43:59.637Z,8.00
2022-11-28T10:50:12.782Z,8.20
2022-11-28T10:56:44.210Z,7.50
2022-11-28T11:02:49.630Z,7.90
2022-11-28T11:08:51.597Z,7.90
2022-11-28T11:14:53.703Z,7.40
2022-11-28T11:21:15.017Z,7.20
2022-11-28T11:27:21.765Z,6.90
2022-11-28T11:33:26.327Z,6.90
2022-11-28T11:39:28.377Z,6.80
2022-11-28T11:45:33.633Z,6.70
2022-11-28T11:51:39.397Z,6.50
2022-11-28T11:57:48.791Z,6.80
2022-11-28T12:04:08.396Z,6.70
2022-11-28T12:10:20.175Z,6.70
2022-11-28T12:16:39.359Z,6.70
2022-11-28T12:22:47.822Z,6.60
2022-11-28T12:29:09.536Z,6.30
2022-11-28T12:35:39.454Z,6.40
2022-11-28T12:41:47.879Z,6.40
2022-11-28T12:48:13.655Z,6.50
2022-11-28T12:54:41.693Z,6.50
2022-11-28T13:01:29.202Z,6.40
2022-11-28T13:08:12.395Z,6.50
2022-11-28T13:14:45.877Z,6.50
2022-11-28T13:20:57.671Z,6.30
2022-11-28T13:27:15.729Z,6.40
2022-11-28T13:33:41.753Z,6.30
2022-11-28T13:39:52.043Z,6.30
2022-11-28T13:45:54.739Z,6.20
2022-11-28T13:52:35.510Z,6.10
2022-11-28T13:59:01.181Z,6.00
2022-11-28T14:05:06.461Z,5.70
2022-11-28T14:11:30.091Z,5.60
2022-11-28T14:17:56.414Z,5.50
2022-11-28T14:24:10.839Z,5.50
2022-11-28T14:30:43.088Z,5.30
2022-11-28T14:36:45.346Z,5.30
2022-11-28T14:43:28.757Z,5.10
2022-11-28T14:49:33.980Z,5.00
2022-11-28T14:55:37.460Z,4.90
2022-11-28T15:01:58.390Z,4.80
2022-11-28T15:08:46.834Z,4.80
2022-11-28T15:14:55.840Z,4.70
2022-11-28T15:21:02.532Z,4.70
2022-11-28T15:27:08.113Z,4.70
2022-11-28T15:33:11.774Z,4.60
2022-11-28T15:39:40.992Z,4.70
2022-11-28T15:45:48.745Z,4.60
2022-11-28T15:51:56.829Z,4.50
2022-11-28T15:58:21.486Z,4.50
2022-11-28T16:04:23.783Z,4.40
2022-11-28T16:10:38.305Z,4.30
2022-11-28T16:16:40.480Z,4.30
2022-11-28T16:22:42.565Z,4.20
2022-11-28T16:29:00.835Z,4.10
2022-11-28T16:35:04.298Z,4.00
2022-11-28T16:41:06.390Z,3.90
2022-11-28T16:47:25.974Z,3.90
2022-11-28T16:53:48.739Z,3.80
2022-11-28T16:59:54.941Z,3.90
2022-11-28T17:05:57.125Z,3.80
2022-11-28T17:12:08.722Z,3.70
2022-11-28T17:18:11.018Z,3.70
2022-11-28T17:24:29.815Z,3.70
2022-11-28T17:30:31.777Z,3.70
2022-11-28T17:36:34.271Z,3.60
2022-11-28T17:42:36.214Z,3.60
2022-11-28T17:48:38.271Z,3.50
2022-11-28T17:54:41.061Z,3.60
2022-11-28T18:00:43.980Z,3.50
2022-11-28T18:06:47.677Z,3.40
2022-11-28T18:12:50.511Z,3.40
2022-11-28T18:18:53.310Z,3.40
2022-11-28T18:24:55.317Z,3.40
2022-11-28T18:30:57.895Z,3.30
2022-11-28T18:37:01.027Z,3.30
2022-11-28T18:43:06.135Z,3.20
2022-11-28T18:49:08.567Z,3.20
2022-11-28T18:55:10.659Z,3.10
2022-11-28T19:01:15.879Z,3.10
2022-11-28T19:07:18.208Z,3.00
2022-11-28T19:13:20.263Z,3.00
2022-11-28T19:19:22.689Z,3.10
2022-11-28T19:25:24.909Z,3.10
2022-11-28T19:31:28.607Z,3.20
2022-11-28T19:37:31.125Z,3.20
2022-11-28T19:43:34.036Z,3.20
2022-11-28T19:49:36.240Z,3.20
2022-11-28T19:55:38.437Z,3.20
2022-11-28T20:01:40.745Z,3.20
2022-11-28T20:07:43.327Z,3.20
2022-11-28T20:13:46.434Z,3.10
2022-11-28T20:19:48.697Z,3.10
2022-11-28T20:25:51.123Z,3.10
2022-11-28T20:31:54.561Z,3.10
2022-11-28T20:37:56.717Z,3.00
2022-11-28T20:44:02.323Z,3.00
2022-11-28T20:50:06.333Z,3.00
2022-11-28T20:56:13.978Z,3.00
2022-11-28T21:02:16.329Z,3.10
2022-11-28T21:08:18.732Z,3.00
2022-11-28T21:14:21.133Z,3.00
2022-11-28T21:20:23.648Z,3.00
2022-11-28T21:26:30.334Z,3.00
2022-11-28T21:32:32.862Z,3.10
2022-11-28T21:38:35.712Z,3.10
2022-11-28T21:44:37.746Z,3.10
2022-11-28T21:50:46.288Z,3.20
2022-11-28T21:56:48.634Z,3.20
2022-11-28T22:02:50.848Z,3.20
2022-11-28T22:08:53.929Z,3.10
2022-11-28T22:14:57.141Z,3.10
2022-11-28T22:21:06.489Z,3.10
2022-11-28T22:27:11.602Z,3.10
2022-11-28T22:33:13.799Z,3.10
2022-11-28T22:39:15.896Z,3.20
2022-11-28T22:45:17.994Z,3.10
2022-11-28T22:51:23.609Z,3.10
2022-11-28T22:57:25.733Z,3.20
2022-11-28T23:03:28.012Z,3.20
2022-11-28T23:09:30.286Z,3.20
2022-11-28T23:15:33.171Z,3.20
2022-11-28T23:21:38.203Z,3.30
2022-11-28T23:27:40.597Z,3.30
2022-11-28T23:33:44.035Z,3.30
2022-11-28T23:39:46.417Z,3.20
2022-11-28T23:45:49.300Z,3.20
2022-11-28T23:51:51.413Z,3.20
2022-11-28T23:57:54.689Z,3.20
